sensor_id;sensor_type;location;lat;lon;timestamp;temperature;humidity
68701;DHT22;55682;51.114;5.882;2023-09-30T00:01:41;14.69;86.83
68701;DHT22;55682;51.114;5.882;2023-09-30T00:04:09;14.73;87.04
68701;DHT22;55682;51.114;5.882;2023-09-30T00:06:34;14.78;86.96
68701;DHT22;55682;51.114;5.882;2023-09-30T00:09:00;14.81;86.86
68701;DHT22;55682;51.114;5.882;2023-09-30T00:11:25;14.83;86.54
68701;DHT22;55682;51.114;5.882;2023-09-30T00:13:52;14.86;86.16
68701;DHT22;55682;51.114;5.882;2023-09-30T00:16:17;14.85;85.67
68701;DHT22;55682;51.114;5.882;2023-09-30T00:18:44;14.87;85.29
68701;DHT22;55682;51.114;5.882;2023-09-30T00:21:10;14.86;84.96
68701;DHT22;55682;51.114;5.882;2023-09-30T00:23:36;14.83;84.71
68701;DHT22;55682;51.114;5.882;2023-09-30T00:26:02;14.80;84.77
68701;DHT22;55682;51.114;5.882;2023-09-30T00:28:27;14.80;84.76
68701;DHT22;55682;51.114;5.882;2023-09-30T00:30:53;14.82;84.97
68701;DHT22;55682;51.114;5.882;2023-09-30T00:33:20;14.82;85.10
68701;DHT22;55682;51.114;5.882;2023-09-30T00:35:46;14.80;85.28
68701;DHT22;55682;51.114;5.882;2023-09-30T00:38:13;14.80;85.34
68701;DHT22;55682;51.114;5.882;2023-09-30T00:40:39;14.78;85.38
68701;DHT22;55682;51.114;5.882;2023-09-30T00:43:05;14.75;85.52
68701;DHT22;55682;51.114;5.882;2023-09-30T00:45:32;14.71;85.74
68701;DHT22;55682;51.114;5.882;2023-09-30T00:47:58;14.67;86.06
68701;DHT22;55682;51.114;5.882;2023-09-30T00:50:23;14.65;86.38
68701;DHT22;55682;51.114;5.882;2023-09-30T00:52:50;14.65;86.51
68701;DHT22;55682;51.114;5.882;2023-09-30T00:55:17;14.65;86.40
68701;DHT22;55682;51.114;5.882;2023-09-30T00:57:43;14.66;86.45
68701;DHT22;55682;51.114;5.882;2023-09-30T01:00:11;14.67;86.45
68701;DHT22;55682;51.114;5.882;2023-09-30T01:02:40;14.64;86.47
68701;DHT22;55682;51.114;5.882;2023-09-30T01:05:07;14.63;86.53
68701;DHT22;55682;51.114;5.882;2023-09-30T01:07:34;14.63;86.77
68701;DHT22;55682;51.114;5.882;2023-09-30T01:10:01;14.64;87.02
68701;DHT22;55682;51.114;5.882;2023-09-30T01:12:27;14.64;87.22
68701;DHT22;55682;51.114;5.882;2023-09-30T01:14:59;14.65;87.32
68701;DHT22;55682;51.114;5.882;2023-09-30T01:17:25;14.68;87.28
68701;DHT22;55682;51.114;5.882;2023-09-30T01:19:51;14.67;87.28
68701;DHT22;55682;51.114;5.882;2023-09-30T01:22:17;14.65;87.61
68701;DHT22;55682;51.114;5.882;2023-09-30T01:24:43;14.65;87.93
68701;DHT22;55682;51.114;5.882;2023-09-30T01:27:09;14.67;88.02
68701;DHT22;55682;51.114;5.882;2023-09-30T01:29:35;14.67;87.86
68701;DHT22;55682;51.114;5.882;2023-09-30T01:32:04;14.67;87.92
68701;DHT22;55682;51.114;5.882;2023-09-30T01:34:34;14.63;88.04
68701;DHT22;55682;51.114;5.882;2023-09-30T01:37:00;14.58;88.10
68701;DHT22;55682;51.114;5.882;2023-09-30T01:39:26;14.57;88.06
68701;DHT22;55682;51.114;5.882;2023-09-30T01:41:51;14.53;88.33
68701;DHT22;55682;51.114;5.882;2023-09-30T01:44:17;14.50;88.51
68701;DHT22;55682;51.114;5.882;2023-09-30T01:46:43;14.48;88.64
68701;DHT22;55682;51.114;5.882;2023-09-30T01:49:09;14.47;88.69
68701;DHT22;55682;51.114;5.882;2023-09-30T01:51:35;14.43;88.76
68701;DHT22;55682;51.114;5.882;2023-09-30T01:54:01;14.42;88.90
68701;DHT22;55682;51.114;5.882;2023-09-30T01:56:26;14.43;88.83
68701;DHT22;55682;51.114;5.882;2023-09-30T01:58:53;14.41;88.92
68701;DHT22;55682;51.114;5.882;2023-09-30T02:01:18;14.40;88.87
68701;DHT22;55682;51.114;5.882;2023-09-30T02:03:44;14.35;89.02
68701;DHT22;55682;51.114;5.882;2023-09-30T02:06:10;14.33;89.11
68701;DHT22;55682;51.114;5.882;2023-09-30T02:08:35;14.32;89.12
68701;DHT22;55682;51.114;5.882;2023-09-30T02:11:03;14.28;89.25
68701;DHT22;55682;51.114;5.882;2023-09-30T02:13:34;14.30;89.18
68701;DHT22;55682;51.114;5.882;2023-09-30T02:16:02;14.30;89.21
68701;DHT22;55682;51.114;5.882;2023-09-30T02:18:28;14.30;89.09
68701;DHT22;55682;51.114;5.882;2023-09-30T02:20:54;14.30;88.82
68701;DHT22;55682;51.114;5.882;2023-09-30T02:23:19;14.22;88.29
68701;DHT22;55682;51.114;5.882;2023-09-30T02:25:46;14.07;88.28
68701;DHT22;55682;51.114;5.882;2023-09-30T02:28:12;13.98;88.33
68701;DHT22;55682;51.114;5.882;2023-09-30T02:30:38;13.92;88.32
68701;DHT22;55682;51.114;5.882;2023-09-30T02:33:04;13.90;88.34
68701;DHT22;55682;51.114;5.882;2023-09-30T02:35:30;13.88;88.22
68701;DHT22;55682;51.114;5.882;2023-09-30T02:37:56;13.86;88.12
68701;DHT22;55682;51.114;5.882;2023-09-30T02:40:21;13.86;88.06
68701;DHT22;55682;51.114;5.882;2023-09-30T02:42:50;13.86;88.26
68701;DHT22;55682;51.114;5.882;2023-09-30T02:45:16;13.85;88.29
68701;DHT22;55682;51.114;5.882;2023-09-30T02:47:45;13.83;88.16
68701;DHT22;55682;51.114;5.882;2023-09-30T02:50:12;13.85;87.89
68701;DHT22;55682;51.114;5.882;2023-09-30T02:52:38;13.84;87.62
68701;DHT22;55682;51.114;5.882;2023-09-30T02:55:11;13.81;87.38
68701;DHT22;55682;51.114;5.882;2023-09-30T02:57:37;13.76;87.32
68701;DHT22;55682;51.114;5.882;2023-09-30T03:00:08;13.74;87.15
68701;DHT22;55682;51.114;5.882;2023-09-30T03:02:50;13.65;87.08
68701;DHT22;55682;51.114;5.882;2023-09-30T03:05:17;13.53;87.15
68701;DHT22;55682;51.114;5.882;2023-09-30T03:07:43;13.48;87.35
68701;DHT22;55682;51.114;5.882;2023-09-30T03:10:09;13.45;87.38
68701;DHT22;55682;51.114;5.882;2023-09-30T03:12:35;13.43;87.61
68701;DHT22;55682;51.114;5.882;2023-09-30T03:15:02;13.40;87.74
68701;DHT22;55682;51.114;5.882;2023-09-30T03:17:31;13.37;87.90
68701;DHT22;55682;51.114;5.882;2023-09-30T03:19:58;13.36;87.94
68701;DHT22;55682;51.114;5.882;2023-09-30T03:22:25;13.36;87.86
68701;DHT22;55682;51.114;5.882;2023-09-30T03:24:54;13.32;87.78
68701;DHT22;55682;51.114;5.882;2023-09-30T03:27:20;13.29;87.83
68701;DHT22;55682;51.114;5.882;2023-09-30T03:29:46;13.25;87.89
68701;DHT22;55682;51.114;5.882;2023-09-30T03:32:11;13.23;88.11
68701;DHT22;55682;51.114;5.882;2023-09-30T03:34:37;13.25;88.57
68701;DHT22;55682;51.114;5.882;2023-09-30T03:37:03;13.25;88.83
68701;DHT22;55682;51.114;5.882;2023-09-30T03:39:32;13.27;89.02
68701;DHT22;55682;51.114;5.882;2023-09-30T03:41:58;13.30;89.09
68701;DHT22;55682;51.114;5.882;2023-09-30T03:44:24;13.31;89.18
68701;DHT22;55682;51.114;5.882;2023-09-30T03:46:53;13.32;89.21
68701;DHT22;55682;51.114;5.882;2023-09-30T03:49:19;13.31;89.09
68701;DHT22;55682;51.114;5.882;2023-09-30T03:51:47;13.30;89.07
68701;DHT22;55682;51.114;5.882;2023-09-30T03:54:16;13.32;89.08
68701;DHT22;55682;51.114;5.882;2023-09-30T03:56:44;13.33;89.24
68701;DHT22;55682;51.114;5.882;2023-09-30T03:59:10;13.33;89.21
68701;DHT22;55682;51.114;5.882;2023-09-30T04:01:36;13.30;89.24
68701;DHT22;55682;51.114;5.882;2023-09-30T04:04:06;13.29;89.15
68701;DHT22;55682;51.114;5.882;2023-09-30T04:06:32;13.27;89.02
68701;DHT22;55682;51.114;5.882;2023-09-30T04:08:58;13.26;88.80
68701;DHT22;55682;51.114;5.882;2023-09-30T04:11:24;13.26;88.69
68701;DHT22;55682;51.114;5.882;2023-09-30T04:13:50;13.25;88.65
68701;DHT22;55682;51.114;5.882;2023-09-30T04:16:16;13.24;88.71
68701;DHT22;55682;51.114;5.882;2023-09-30T04:18:44;13.21;88.62
68701;DHT22;55682;51.114;5.882;2023-09-30T04:21:09;13.16;88.80
68701;DHT22;55682;51.114;5.882;2023-09-30T04:23:35;13.12;89.00
68701;DHT22;55682;51.114;5.882;2023-09-30T04:26:03;13.09;89.27
68701;DHT22;55682;51.114;5.882;2023-09-30T04:28:30;13.11;89.54
68701;DHT22;55682;51.114;5.882;2023-09-30T04:30:56;13.12;89.86
68701;DHT22;55682;51.114;5.882;2023-09-30T04:33:21;13.16;89.98
68701;DHT22;55682;51.114;5.882;2023-09-30T04:35:49;13.18;90.12
68701;DHT22;55682;51.114;5.882;2023-09-30T04:38:15;13.18;90.19
68701;DHT22;55682;51.114;5.882;2023-09-30T04:40:41;13.17;90.31
68701;DHT22;55682;51.114;5.882;2023-09-30T04:43:09;13.19;90.46
68701;DHT22;55682;51.114;5.882;2023-09-30T04:45:34;13.19;90.58
68701;DHT22;55682;51.114;5.882;2023-09-30T04:48:00;13.19;90.59
68701;DHT22;55682;51.114;5.882;2023-09-30T04:50:28;13.19;90.63
68701;DHT22;55682;51.114;5.882;2023-09-30T04:52:56;13.22;90.70
68701;DHT22;55682;51.114;5.882;2023-09-30T04:55:22;13.22;90.73
68701;DHT22;55682;51.114;5.882;2023-09-30T04:57:48;13.20;90.76
68701;DHT22;55682;51.114;5.882;2023-09-30T05:00:20;13.20;90.82
68701;DHT22;55682;51.114;5.882;2023-09-30T05:02:51;13.21;90.91
68701;DHT22;55682;51.114;5.882;2023-09-30T05:05:20;13.22;90.90
68701;DHT22;55682;51.114;5.882;2023-09-30T05:07:46;13.21;90.89
68701;DHT22;55682;51.114;5.882;2023-09-30T05:10:13;13.20;90.82
68701;DHT22;55682;51.114;5.882;2023-09-30T05:12:42;13.18;90.76
68701;DHT22;55682;51.114;5.882;2023-09-30T05:15:15;13.16;90.63
68701;DHT22;55682;51.114;5.882;2023-09-30T05:17:42;13.11;90.53
68701;DHT22;55682;51.114;5.882;2023-09-30T05:20:11;13.07;90.43
68701;DHT22;55682;51.114;5.882;2023-09-30T05:22:41;13.04;90.27
68701;DHT22;55682;51.114;5.882;2023-09-30T05:25:10;13.03;90.15
68701;DHT22;55682;51.114;5.882;2023-09-30T05:27:36;13.03;90.08
68701;DHT22;55682;51.114;5.882;2023-09-30T05:30:02;13.00;90.15
68701;DHT22;55682;51.114;5.882;2023-09-30T05:32:27;12.93;90.08
68701;DHT22;55682;51.114;5.882;2023-09-30T05:34:53;12.86;90.03
68701;DHT22;55682;51.114;5.882;2023-09-30T05:37:20;12.80;90.09
68701;DHT22;55682;51.114;5.882;2023-09-30T05:39:47;12.80;90.10
68701;DHT22;55682;51.114;5.882;2023-09-30T05:42:15;12.84;89.92
68701;DHT22;55682;51.114;5.882;2023-09-30T05:44:41;12.86;89.62
68701;DHT22;55682;51.114;5.882;2023-09-30T05:47:08;12.93;89.34
68701;DHT22;55682;51.114;5.882;2023-09-30T05:49:34;13.03;89.34
68701;DHT22;55682;51.114;5.882;2023-09-30T05:52:02;13.11;89.30
68701;DHT22;55682;51.114;5.882;2023-09-30T05:54:28;13.19;89.33
68701;DHT22;55682;51.114;5.882;2023-09-30T05:56:54;13.31;88.99
68701;DHT22;55682;51.114;5.882;2023-09-30T05:59:21;13.38;88.42
68701;DHT22;55682;51.114;5.882;2023-09-30T06:01:46;13.44;88.08
68701;DHT22;55682;51.114;5.882;2023-09-30T06:04:12;13.43;88.06
68701;DHT22;55682;51.114;5.882;2023-09-30T06:06:38;13.41;88.22
68701;DHT22;55682;51.114;5.882;2023-09-30T06:09:04;13.46;88.83
68701;DHT22;55682;51.114;5.882;2023-09-30T06:11:33;13.79;89.15
68701;DHT22;55682;51.114;5.882;2023-09-30T06:13:59;14.11;88.59
68701;DHT22;55682;51.114;5.882;2023-09-30T06:16:27;14.78;88.31
68701;DHT22;55682;51.114;5.882;2023-09-30T06:18:53;15.49;86.48
68701;DHT22;55682;51.114;5.882;2023-09-30T06:21:20;16.10;83.13
68701;DHT22;55682;51.114;5.882;2023-09-30T06:23:49;16.72;80.26
68701;DHT22;55682;51.114;5.882;2023-09-30T06:26:17;17.38;76.22
68701;DHT22;55682;51.114;5.882;2023-09-30T06:28:44;17.47;72.38
68701;DHT22;55682;51.114;5.882;2023-09-30T06:31:10;17.76;72.69
68701;DHT22;55682;51.114;5.882;2023-09-30T06:33:37;18.46;71.65
68701;DHT22;55682;51.114;5.882;2023-09-30T06:36:11;19.31;68.68
68701;DHT22;55682;51.114;5.882;2023-09-30T06:38:40;20.07;65.71
68701;DHT22;55682;51.114;5.882;2023-09-30T06:41:08;20.76;62.85
68701;DHT22;55682;51.114;5.882;2023-09-30T06:43:33;21.28;60.95
68701;DHT22;55682;51.114;5.882;2023-09-30T06:46:09;21.74;59.41
68701;DHT22;55682;51.114;5.882;2023-09-30T06:48:36;21.88;59.06
68701;DHT22;55682;51.114;5.882;2023-09-30T06:51:03;22.21;58.21
68701;DHT22;55682;51.114;5.882;2023-09-30T06:53:28;22.61;56.55
68701;DHT22;55682;51.114;5.882;2023-09-30T06:55:54;23.05;55.17
68701;DHT22;55682;51.114;5.882;2023-09-30T06:58:20;23.61;53.70
68701;DHT22;55682;51.114;5.882;2023-09-30T07:00:50;24.10;52.17
68701;DHT22;55682;51.114;5.882;2023-09-30T07:03:17;24.61;50.47
68701;DHT22;55682;51.114;5.882;2023-09-30T07:05:45;24.90;49.31
68701;DHT22;55682;51.114;5.882;2023-09-30T07:08:10;25.13;49.07
68701;DHT22;55682;51.114;5.882;2023-09-30T07:10:36;25.29;48.33
68701;DHT22;55682;51.114;5.882;2023-09-30T07:13:03;25.39;48.41
68701;DHT22;55682;51.114;5.882;2023-09-30T07:15:29;25.62;48.00
68701;DHT22;55682;51.114;5.882;2023-09-30T07:17:54;25.82;47.28
68701;DHT22;55682;51.114;5.882;2023-09-30T07:20:20;26.01;47.01
68701;DHT22;55682;51.114;5.882;2023-09-30T07:22:48;26.20;46.36
68701;DHT22;55682;51.114;5.882;2023-09-30T07:25:14;26.24;46.51
68701;DHT22;55682;51.114;5.882;2023-09-30T07:27:43;26.41;46.19
68701;DHT22;55682;51.114;5.882;2023-09-30T07:30:09;26.57;46.05
68701;DHT22;55682;51.114;5.882;2023-09-30T07:32:37;26.70;45.52
68701;DHT22;55682;51.114;5.882;2023-09-30T07:35:03;26.72;45.67
68701;DHT22;55682;51.114;5.882;2023-09-30T07:37:29;26.93;45.77
68701;DHT22;55682;51.114;5.882;2023-09-30T07:39:55;26.96;45.05
68701;DHT22;55682;51.114;5.882;2023-09-30T07:42:21;26.80;45.84
68701;DHT22;55682;51.114;5.882;2023-09-30T07:44:48;26.72;46.11
68701;DHT22;55682;51.114;5.882;2023-09-30T07:47:14;26.62;46.89
68701;DHT22;55682;51.114;5.882;2023-09-30T07:49:40;26.52;46.28
68701;DHT22;55682;51.114;5.882;2023-09-30T07:52:06;26.31;47.07
68701;DHT22;55682;51.114;5.882;2023-09-30T07:54:31;25.97;47.54
68701;DHT22;55682;51.114;5.882;2023-09-30T07:56:57;25.95;48.60
68701;DHT22;55682;51.114;5.882;2023-09-30T07:59:24;26.24;47.32
68701;DHT22;55682;51.114;5.882;2023-09-30T08:01:51;26.20;46.97
68701;DHT22;55682;51.114;5.882;2023-09-30T08:04:20;25.80;46.60
68701;DHT22;55682;51.114;5.882;2023-09-30T08:06:46;24.91;48.71
68701;DHT22;55682;51.114;5.882;2023-09-30T08:09:13;23.85;51.43
68701;DHT22;55682;51.114;5.882;2023-09-30T08:11:39;22.96;54.16
68701;DHT22;55682;51.114;5.882;2023-09-30T08:14:05;22.35;56.13
68701;DHT22;55682;51.114;5.882;2023-09-30T08:16:36;21.93;57.65
68701;DHT22;55682;51.114;5.882;2023-09-30T08:19:03;21.62;58.58
68701;DHT22;55682;51.114;5.882;2023-09-30T08:21:29;21.38;59.64
68701;DHT22;55682;51.114;5.882;2023-09-30T08:23:56;21.21;61.04
68701;DHT22;55682;51.114;5.882;2023-09-30T08:26:22;21.06;61.59
68701;DHT22;55682;51.114;5.882;2023-09-30T08:28:48;20.86;61.73
68701;DHT22;55682;51.114;5.882;2023-09-30T08:31:14;20.48;62.66
68701;DHT22;55682;51.114;5.882;2023-09-30T08:33:40;20.04;64.09
68701;DHT22;55682;51.114;5.882;2023-09-30T08:36:08;19.72;65.95
68701;DHT22;55682;51.114;5.882;2023-09-30T08:38:38;19.66;66.57
68701;DHT22;55682;51.114;5.882;2023-09-30T08:41:05;19.71;67.15
68701;DHT22;55682;51.114;5.882;2023-09-30T08:43:37;19.74;67.00
68701;DHT22;55682;51.114;5.882;2023-09-30T08:46:05;19.61;67.52
68701;DHT22;55682;51.114;5.882;2023-09-30T08:48:34;19.75;67.36
68701;DHT22;55682;51.114;5.882;2023-09-30T08:51:01;19.85;67.65
68701;DHT22;55682;51.114;5.882;2023-09-30T08:53:29;20.32;67.36
68701;DHT22;55682;51.114;5.882;2023-09-30T08:55:56;20.84;65.91
68701;DHT22;55682;51.114;5.882;2023-09-30T08:58:27;21.91;64.56
68701;DHT22;55682;51.114;5.882;2023-09-30T09:00:52;22.91;58.74
68701;DHT22;55682;51.114;5.882;2023-09-30T09:03:19;23.50;57.29
68701;DHT22;55682;51.114;5.882;2023-09-30T09:05:55;23.76;54.59
68701;DHT22;55682;51.114;5.882;2023-09-30T09:08:26;24.02;55.27
68701;DHT22;55682;51.114;5.882;2023-09-30T09:10:59;24.19;53.51
68701;DHT22;55682;51.114;5.882;2023-09-30T09:13:27;24.02;54.04
68701;DHT22;55682;51.114;5.882;2023-09-30T09:16:06;23.90;53.78
68701;DHT22;55682;51.114;5.882;2023-09-30T09:18:32;23.50;54.80
68701;DHT22;55682;51.114;5.882;2023-09-30T09:21:12;23.55;55.63
68701;DHT22;55682;51.114;5.882;2023-09-30T09:23:42;24.18;54.02
68701;DHT22;55682;51.114;5.882;2023-09-30T09:26:09;24.78;51.55
68701;DHT22;55682;51.114;5.882;2023-09-30T09:28:35;24.86;51.26
68701;DHT22;55682;51.114;5.882;2023-09-30T09:31:26;25.31;50.14
68701;DHT22;55682;51.114;5.882;2023-09-30T09:33:52;25.78;49.51
68701;DHT22;55682;51.114;5.882;2023-09-30T09:36:19;26.54;48.99
68701;DHT22;55682;51.114;5.882;2023-09-30T09:38:51;27.06;46.31
68701;DHT22;55682;51.114;5.882;2023-09-30T09:41:20;27.70;45.22
68701;DHT22;55682;51.114;5.882;2023-09-30T09:43:49;27.90;44.00
68701;DHT22;55682;51.114;5.882;2023-09-30T09:46:17;28.20;42.97
68701;DHT22;55682;51.114;5.882;2023-09-30T09:48:45;28.34;42.64
68701;DHT22;55682;51.114;5.882;2023-09-30T09:51:11;28.64;42.32
68701;DHT22;55682;51.114;5.882;2023-09-30T09:53:39;28.88;41.75
68701;DHT22;55682;51.114;5.882;2023-09-30T09:56:08;29.26;40.94
68701;DHT22;55682;51.114;5.882;2023-09-30T09:58:39;29.62;40.04
68701;DHT22;55682;51.114;5.882;2023-09-30T10:01:06;29.77;39.20
68701;DHT22;55682;51.114;5.882;2023-09-30T10:03:32;29.89;38.19
68701;DHT22;55682;51.114;5.882;2023-09-30T10:05:59;29.68;38.15
68701;DHT22;55682;51.114;5.882;2023-09-30T10:08:33;29.53;39.31
68701;DHT22;55682;51.114;5.882;2023-09-30T10:11:01;29.67;38.83
68701;DHT22;55682;51.114;5.882;2023-09-30T10:13:55;29.52;38.62
68701;DHT22;55682;51.114;5.882;2023-09-30T10:19:13;30.04;37.79
68701;DHT22;55682;51.114;5.882;2023-09-30T10:21:40;29.90;38.53
68701;DHT22;55682;51.114;5.882;2023-09-30T10:35:19;29.61;38.51
68701;DHT22;55682;51.114;5.882;2023-09-30T10:37:45;29.97;37.61
68701;DHT22;55682;51.114;5.882;2023-09-30T10:40:28;29.85;37.02
68701;DHT22;55682;51.114;5.882;2023-09-30T10:42:54;29.88;37.15
68701;DHT22;55682;51.114;5.882;2023-09-30T10:53:23;30.49;36.85
68701;DHT22;55682;51.114;5.882;2023-09-30T10:55:57;30.84;36.30
68701;DHT22;55682;51.114;5.882;2023-09-30T10:58:49;31.28;35.85
68701;DHT22;55682;51.114;5.882;2023-09-30T11:01:21;31.71;33.99
68701;DHT22;55682;51.114;5.882;2023-09-30T11:03:48;31.79;33.88
68701;DHT22;55682;51.114;5.882;2023-09-30T11:06:18;32.01;33.73
68701;DHT22;55682;51.114;5.882;2023-09-30T11:08:53;32.13;33.11
68701;DHT22;55682;51.114;5.882;2023-09-30T11:11:41;32.02;33.03
68701;DHT22;55682;51.114;5.882;2023-09-30T11:16:54;32.01;32.80
68701;DHT22;55682;51.114;5.882;2023-09-30T11:19:21;32.07;32.73
68701;DHT22;55682;51.114;5.882;2023-09-30T11:21:52;31.70;32.58
68701;DHT22;55682;51.114;5.882;2023-09-30T11:24:19;31.36;33.12
68701;DHT22;55682;51.114;5.882;2023-09-30T11:26:45;31.27;33.86
68701;DHT22;55682;51.114;5.882;2023-09-30T11:29:16;31.37;33.04
68701;DHT22;55682;51.114;5.882;2023-09-30T11:31:47;30.98;33.72
68701;DHT22;55682;51.114;5.882;2023-09-30T11:34:15;30.97;34.08
68701;DHT22;55682;51.114;5.882;2023-09-30T11:36:49;31.36;32.89
68701;DHT22;55682;51.114;5.882;2023-09-30T11:39:31;31.49;32.32
68701;DHT22;55682;51.114;5.882;2023-09-30T11:41:57;31.19;32.95
68701;DHT22;55682;51.114;5.882;2023-09-30T11:44:26;30.81;32.96
68701;DHT22;55682;51.114;5.882;2023-09-30T11:46:59;30.33;33.30
68701;DHT22;55682;51.114;5.882;2023-09-30T11:49:27;29.90;34.41
68701;DHT22;55682;51.114;5.882;2023-09-30T11:51:53;29.65;34.84
68701;DHT22;55682;51.114;5.882;2023-09-30T11:54:19;29.57;35.04
68701;DHT22;55682;51.114;5.882;2023-09-30T11:56:45;29.73;34.96
68701;DHT22;55682;51.114;5.882;2023-09-30T11:59:13;30.00;34.48
68701;DHT22;55682;51.114;5.882;2023-09-30T12:01:38;30.30;34.07
68701;DHT22;55682;51.114;5.882;2023-09-30T12:04:05;30.09;33.07
68701;DHT22;55682;51.114;5.882;2023-09-30T12:06:32;29.52;34.01
68701;DHT22;55682;51.114;5.882;2023-09-30T12:09:00;29.01;34.74
68701;DHT22;55682;51.114;5.882;2023-09-30T12:11:25;28.86;35.47
68701;DHT22;55682;51.114;5.882;2023-09-30T12:13:51;28.89;35.26
68701;DHT22;55682;51.114;5.882;2023-09-30T12:16:17;28.95;34.88
68701;DHT22;55682;51.114;5.882;2023-09-30T12:18:43;29.20;34.53
68701;DHT22;55682;51.114;5.882;2023-09-30T12:21:10;29.33;34.15
68701;DHT22;55682;51.114;5.882;2023-09-30T12:23:37;29.60;33.58
68701;DHT22;55682;51.114;5.882;2023-09-30T12:26:02;29.45;33.59
68701;DHT22;55682;51.114;5.882;2023-09-30T12:28:31;29.37;32.99
68701;DHT22;55682;51.114;5.882;2023-09-30T12:30:58;29.02;33.85
68701;DHT22;55682;51.114;5.882;2023-09-30T12:33:24;28.59;34.50
68701;DHT22;55682;51.114;5.882;2023-09-30T12:35:50;28.18;35.45
68701;DHT22;55682;51.114;5.882;2023-09-30T12:38:16;28.03;35.98
68701;DHT22;55682;51.114;5.882;2023-09-30T12:40:42;28.08;35.92
68701;DHT22;55682;51.114;5.882;2023-09-30T12:43:09;28.14;35.76
68701;DHT22;55682;51.114;5.882;2023-09-30T12:45:36;28.18;35.45
68701;DHT22;55682;51.114;5.882;2023-09-30T12:48:04;28.18;36.00
68701;DHT22;55682;51.114;5.882;2023-09-30T12:50:30;28.17;35.98
68701;DHT22;55682;51.114;5.882;2023-09-30T12:52:55;28.19;35.71
68701;DHT22;55682;51.114;5.882;2023-09-30T12:55:21;28.13;34.89
68701;DHT22;55682;51.114;5.882;2023-09-30T12:57:46;28.03;34.99
68701;DHT22;55682;51.114;5.882;2023-09-30T13:00:13;27.90;35.05
68701;DHT22;55682;51.114;5.882;2023-09-30T13:02:41;27.50;35.21
68701;DHT22;55682;51.114;5.882;2023-09-30T13:05:08;27.20;35.82
68701;DHT22;55682;51.114;5.882;2023-09-30T13:07:33;27.05;36.14
68701;DHT22;55682;51.114;5.882;2023-09-30T13:09:59;26.91;35.92
68701;DHT22;55682;51.114;5.882;2023-09-30T13:12:26;26.65;36.56
68701;DHT22;55682;51.114;5.882;2023-09-30T13:14:52;26.43;37.40
68701;DHT22;55682;51.114;5.882;2023-09-30T13:17:22;26.31;37.82
68701;DHT22;55682;51.114;5.882;2023-09-30T13:19:49;26.36;38.42
68701;DHT22;55682;51.114;5.882;2023-09-30T13:22:15;26.26;38.48
68701;DHT22;55682;51.114;5.882;2023-09-30T13:24:42;26.33;38.97
68701;DHT22;55682;51.114;5.882;2023-09-30T13:27:08;26.38;38.33
68701;DHT22;55682;51.114;5.882;2023-09-30T13:29:34;26.41;38.46
68701;DHT22;55682;51.114;5.882;2023-09-30T13:32:00;26.33;39.14
68701;DHT22;55682;51.114;5.882;2023-09-30T13:34:25;26.27;38.91
68701;DHT22;55682;51.114;5.882;2023-09-30T13:36:51;26.17;39.48
68701;DHT22;55682;51.114;5.882;2023-09-30T13:39:16;26.11;39.72
68701;DHT22;55682;51.114;5.882;2023-09-30T13:41:43;26.10;39.36
68701;DHT22;55682;51.114;5.882;2023-09-30T13:44:09;25.93;39.68
68701;DHT22;55682;51.114;5.882;2023-09-30T13:46:37;25.86;40.55
68701;DHT22;55682;51.114;5.882;2023-09-30T13:49:03;25.88;40.59
68701;DHT22;55682;51.114;5.882;2023-09-30T13:51:29;25.84;40.68
68701;DHT22;55682;51.114;5.882;2023-09-30T13:53:55;25.74;41.35
68701;DHT22;55682;51.114;5.882;2023-09-30T13:56:20;25.80;41.37
68701;DHT22;55682;51.114;5.882;2023-09-30T13:58:46;25.87;41.51
68701;DHT22;55682;51.114;5.882;2023-09-30T14:01:15;25.96;41.62
68701;DHT22;55682;51.114;5.882;2023-09-30T14:03:41;26.07;41.18
68701;DHT22;55682;51.114;5.882;2023-09-30T14:06:13;26.08;41.27
68701;DHT22;55682;51.114;5.882;2023-09-30T14:08:40;25.94;41.35
68701;DHT22;55682;51.114;5.882;2023-09-30T14:11:10;25.86;41.87
68701;DHT22;55682;51.114;5.882;2023-09-30T14:13:37;25.68;41.79
68701;DHT22;55682;51.114;5.882;2023-09-30T14:16:05;25.46;42.68
68701;DHT22;55682;51.114;5.882;2023-09-30T14:18:31;25.32;42.69
68701;DHT22;55682;51.114;5.882;2023-09-30T14:20:56;25.21;42.81
68701;DHT22;55682;51.114;5.882;2023-09-30T14:23:22;25.00;43.02
68701;DHT22;55682;51.114;5.882;2023-09-30T14:25:49;24.85;43.58
68701;DHT22;55682;51.114;5.882;2023-09-30T14:28:14;24.75;43.56
68701;DHT22;55682;51.114;5.882;2023-09-30T14:30:40;24.68;43.64
68701;DHT22;55682;51.114;5.882;2023-09-30T14:33:06;24.71;44.09
68701;DHT22;55682;51.114;5.882;2023-09-30T14:35:34;24.61;44.05
68701;DHT22;55682;51.114;5.882;2023-09-30T14:38:02;24.42;44.44
68701;DHT22;55682;51.114;5.882;2023-09-30T14:40:28;24.36;44.58
68701;DHT22;55682;51.114;5.882;2023-09-30T14:42:53;24.26;44.96
68701;DHT22;55682;51.114;5.882;2023-09-30T14:45:19;24.21;45.68
68701;DHT22;55682;51.114;5.882;2023-09-30T14:47:47;24.19;46.00
68701;DHT22;55682;51.114;5.882;2023-09-30T14:50:13;24.24;45.93
68701;DHT22;55682;51.114;5.882;2023-09-30T14:52:39;24.21;45.67
68701;DHT22;55682;51.114;5.882;2023-09-30T14:55:05;24.20;45.87
68701;DHT22;55682;51.114;5.882;2023-09-30T14:57:31;24.17;46.10
68701;DHT22;55682;51.114;5.882;2023-09-30T14:59:58;24.19;45.58
68701;DHT22;55682;51.114;5.882;2023-09-30T15:02:24;24.00;45.54
68701;DHT22;55682;51.114;5.882;2023-09-30T15:04:52;23.81;46.02
68701;DHT22;55682;51.114;5.882;2023-09-30T15:07:18;23.71;46.00
68701;DHT22;55682;51.114;5.882;2023-09-30T15:09:44;23.65;45.99
68701;DHT22;55682;51.114;5.882;2023-09-30T15:12:09;23.67;45.65
68701;DHT22;55682;51.114;5.882;2023-09-30T15:14:35;23.61;45.45
68701;DHT22;55682;51.114;5.882;2023-09-30T15:17:01;23.65;45.50
68701;DHT22;55682;51.114;5.882;2023-09-30T15:19:26;23.70;45.05
68701;DHT22;55682;51.114;5.882;2023-09-30T15:21:52;23.66;44.63
68701;DHT22;55682;51.114;5.882;2023-09-30T15:24:17;23.69;43.40
68701;DHT22;55682;51.114;5.882;2023-09-30T15:26:43;23.61;42.93
68701;DHT22;55682;51.114;5.882;2023-09-30T15:29:09;23.46;42.52
68701;DHT22;55682;51.114;5.882;2023-09-30T15:31:35;23.40;42.66
68701;DHT22;55682;51.114;5.882;2023-09-30T15:34:00;23.36;42.89
68701;DHT22;55682;51.114;5.882;2023-09-30T15:36:26;23.23;43.16
68701;DHT22;55682;51.114;5.882;2023-09-30T15:38:52;23.13;43.40
68701;DHT22;55682;51.114;5.882;2023-09-30T15:41:25;22.99;44.25
68701;DHT22;55682;51.114;5.882;2023-09-30T15:43:51;22.94;44.50
68701;DHT22;55682;51.114;5.882;2023-09-30T15:46:17;22.85;44.92
68701;DHT22;55682;51.114;5.882;2023-09-30T15:48:43;22.73;45.35
68701;DHT22;55682;51.114;5.882;2023-09-30T15:51:08;22.70;46.14
68701;DHT22;55682;51.114;5.882;2023-09-30T15:53:34;22.68;46.43
68701;DHT22;55682;51.114;5.882;2023-09-30T15:56:04;22.65;46.76